sensor_id;sensor_type;location;lat;lon;timestamp;pressure;altitude;pressure_sealevel;temperature;humidity
23176;BME280;19910;42.652;23.332;2022-09-09T00:01:53;94847.91;;;16.65;84.09
23176;BME280;19910;42.652;23.332;2022-09-09T00:04:26;94853.88;;;16.55;84.48
23176;BME280;19910;42.652;23.332;2022-09-09T00:07:03;94840.97;;;16.52;84.42
23176;BME280;19910;42.652;23.332;2022-09-09T00:09:35;94850.75;;;16.53;84.31
23176;BME280;19910;42.652;23.332;2022-09-09T00:12:09;94846.84;;;16.54;84.29
23176;BME280;19910;42.652;23.332;2022-09-09T00:14:41;94842.44;;;16.65;83.07
23176;BME280;19910;42.652;23.332;2022-09-09T00:17:14;94847.22;;;16.72;82.45
23176;BME280;19910;42.652;23.332;2022-09-09T00:19:47;94843.50;;;16.80;81.92
23176;BME280;19910;42.652;23.332;2022-09-09T00:22:19;94835.50;;;16.71;82.76
23176;BME280;19910;42.652;23.332;2022-09-09T00:24:49;94841.31;;;16.50;83.84
23176;BME280;19910;42.652;23.332;2022-09-09T00:27:30;94824.19;;;16.53;84.51
23176;BME280;19910;42.652;23.332;2022-09-09T00:30:12;94817.63;;;16.58;84.69
23176;BME280;19910;42.652;23.332;2022-09-09T00:32:39;94818.66;;;16.69;84.31
23176;BME280;19910;42.652;23.332;2022-09-09T00:35:15;94819.63;;;16.61;84.60
23176;BME280;19910;42.652;23.332;2022-09-09T00:37:46;94815.59;;;16.55;84.62
23176;BME280;19910;42.652;23.332;2022-09-09T00:40:21;94804.66;;;16.55;84.55
23176;BME280;19910;42.652;23.332;2022-09-09T00:42:52;94810.38;;;16.65;84.21
23176;BME280;19910;42.652;23.332;2022-09-09T00:45:37;94798.56;;;16.61;84.18
23176;BME280;19910;42.652;23.332;2022-09-09T00:48:09;94805.28;;;16.64;84.61
23176;BME280;19910;42.652;23.332;2022-09-09T00:50:45;94800.78;;;16.56;84.37
23176;BME280;19910;42.652;23.332;2022-09-09T00:53:34;94803.38;;;16.49;84.40
23176;BME280;19910;42.652;23.332;2022-09-09T00:56:12;94810.88;;;16.52;84.34
23176;BME280;19910;42.652;23.332;2022-09-09T00:58:42;94803.81;;;16.51;84.16
23176;BME280;19910;42.652;23.332;2022-09-09T01:01:11;94801.94;;;16.35;84.40
23176;BME280;19910;42.652;23.332;2022-09-09T01:03:42;94805.53;;;16.20;84.63
23176;BME280;19910;42.652;23.332;2022-09-09T01:06:16;94800.38;;;15.99;85.16
23176;BME280;19910;42.652;23.332;2022-09-09T01:11:49;94824.44;;;15.59;87.07
23176;BME280;19910;42.652;23.332;2022-09-09T01:14:31;94820.09;;;15.74;86.52
23176;BME280;19910;42.652;23.332;2022-09-09T01:17:09;94812.44;;;15.79;86.53
23176;BME280;19910;42.652;23.332;2022-09-09T01:19:47;94817.25;;;15.86;85.90
23176;BME280;19910;42.652;23.332;2022-09-09T01:22:23;94820.28;;;15.81;86.03
23176;BME280;19910;42.652;23.332;2022-09-09T01:25:11;94818.50;;;15.88;85.90
23176;BME280;19910;42.652;23.332;2022-09-09T01:27:43;94804.78;;;15.85;85.52
23176;BME280;19910;42.652;23.332;2022-09-09T01:30:13;94803.59;;;15.86;86.00
23176;BME280;19910;42.652;23.332;2022-09-09T01:32:43;94804.13;;;15.91;85.24
23176;BME280;19910;42.652;23.332;2022-09-09T01:35:14;94810.13;;;15.97;85.18
23176;BME280;19910;42.652;23.332;2022-09-09T01:37:42;94818.16;;;15.90;85.21
23176;BME280;19910;42.652;23.332;2022-09-09T01:40:09;94826.06;;;15.95;85.40
23176;BME280;19910;42.652;23.332;2022-09-09T01:42:35;94823.03;;;16.00;85.31
23176;BME280;19910;42.652;23.332;2022-09-09T01:45:05;94823.78;;;15.97;85.18
23176;BME280;19910;42.652;23.332;2022-09-09T01:47:32;94833.13;;;15.96;85.58
23176;BME280;19910;42.652;23.332;2022-09-09T01:49:59;94826.06;;;15.95;85.82
23176;BME280;19910;42.652;23.332;2022-09-09T01:52:28;94834.84;;;16.04;85.49
23176;BME280;19910;42.652;23.332;2022-09-09T01:54:56;94838.28;;;16.01;85.36
23176;BME280;19910;42.652;23.332;2022-09-09T01:57:25;94834.84;;;16.04;85.52
23176;BME280;19910;42.652;23.332;2022-09-09T02:00:04;94841.19;;;16.08;84.70
23176;BME280;19910;42.652;23.332;2022-09-09T02:02:36;94834.94;;;16.08;85.17
23176;BME280;19910;42.652;23.332;2022-09-09T02:05:16;94836.44;;;16.05;85.25
23176;BME280;19910;42.652;23.332;2022-09-09T02:07:47;94834.47;;;16.21;84.65
23176;BME280;19910;42.652;23.332;2022-09-09T02:10:21;94826.38;;;16.09;84.87
23176;BME280;19910;42.652;23.332;2022-09-09T02:12:52;94838.59;;;15.96;85.61
23176;BME280;19910;42.652;23.332;2022-09-09T02:15:28;94833.75;;;15.89;85.81
23176;BME280;19910;42.652;23.332;2022-09-09T02:18:00;94817.25;;;15.86;86.19
23176;BME280;19910;42.652;23.332;2022-09-09T02:20:29;94810.84;;;15.78;86.02
23176;BME280;19910;42.652;23.332;2022-09-09T02:22:59;94800.56;;;15.72;86.96
23176;BME280;19910;42.652;23.332;2022-09-09T02:25:28;94811.47;;;15.72;86.74
23176;BME280;19910;42.652;23.332;2022-09-09T02:27:56;94814.59;;;15.70;87.08
23176;BME280;19910;42.652;23.332;2022-09-09T02:30:24;94816.94;;;15.72;86.85
23176;BME280;19910;42.652;23.332;2022-09-09T02:32:52;94819.66;;;15.72;86.59
23176;BME280;19910;42.652;23.332;2022-09-09T02:35:24;94820.91;;;15.74;86.48
23176;BME280;19910;42.652;23.332;2022-09-09T02:37:54;94825.56;;;15.74;86.33
23176;BME280;19910;42.652;23.332;2022-09-09T02:40:24;94808.25;;;15.66;86.66
23176;BME280;19910;42.652;23.332;2022-09-09T02:42:51;94829.13;;;15.58;86.55
23176;BME280;19910;42.652;23.332;2022-09-09T02:45:23;94829.13;;;15.58;86.98
23176;BME280;19910;42.652;23.332;2022-09-09T02:47:56;94838.16;;;15.47;87.43
23176;BME280;19910;42.652;23.332;2022-09-09T02:50:32;94845.84;;;15.41;87.78
23176;BME280;19910;42.652;23.332;2022-09-09T02:53:06;94843.22;;;15.29;88.46
23176;BME280;19910;42.652;23.332;2022-09-09T02:55:39;94844.00;;;15.29;88.58
23176;BME280;19910;42.652;23.332;2022-09-09T02:58:10;94840.19;;;15.34;88.53
23176;BME280;19910;42.652;23.332;2022-09-09T03:00:38;94830.97;;;15.39;88.48
23176;BME280;19910;42.652;23.332;2022-09-09T03:03:06;94835.78;;;15.45;88.22
23176;BME280;19910;42.652;23.332;2022-09-09T03:05:35;94834.59;;;15.43;88.22
23176;BME280;19910;42.652;23.332;2022-09-09T03:08:03;94831.66;;;15.51;87.86
23176;BME280;19910;42.652;23.332;2022-09-09T03:10:30;94834.56;;;15.58;87.43
23176;BME280;19910;42.652;23.332;2022-09-09T03:12:57;94842.22;;;15.53;87.69
23176;BME280;19910;42.652;23.332;2022-09-09T03:15:25;94842.84;;;15.46;87.98
23176;BME280;19910;42.652;23.332;2022-09-09T03:17:54;94838.25;;;15.50;87.85
23176;BME280;19910;42.652;23.332;2022-09-09T03:20:22;94844.88;;;15.49;87.95
23176;BME280;19910;42.652;23.332;2022-09-09T03:22:50;94843.56;;;15.43;87.97
23176;BME280;19910;42.652;23.332;2022-09-09T03:25:17;94835.00;;;15.45;87.93
23176;BME280;19910;42.652;23.332;2022-09-09T03:27:44;94834.28;;;15.48;87.59
23176;BME280;19910;42.652;23.332;2022-09-09T03:30:11;94840.56;;;15.48;88.03
23176;BME280;19910;42.652;23.332;2022-09-09T03:32:39;94841.44;;;15.52;88.01
23176;BME280;19910;42.652;23.332;2022-09-09T03:35:07;94834.22;;;15.44;88.17
23176;BME280;19910;42.652;23.332;2022-09-09T03:37:34;94838.47;;;15.57;87.74
23176;BME280;19910;42.652;23.332;2022-09-09T03:40:03;94833.88;;;15.61;87.46
23176;BME280;19910;42.652;23.332;2022-09-09T03:42:31;94833.78;;;15.42;88.37
23176;BME280;19910;42.652;23.332;2022-09-09T03:44:58;94831.75;;;15.39;88.58
23176;BME280;19910;42.652;23.332;2022-09-09T03:47:25;94837.22;;;15.39;88.08
23176;BME280;19910;42.652;23.332;2022-09-09T03:49:52;94835.19;;;15.36;88.43
23176;BME280;19910;42.652;23.332;2022-09-09T03:52:18;94835.31;;;15.55;87.93
23176;BME280;19910;42.652;23.332;2022-09-09T03:54:47;94832.09;;;15.53;88.00
23176;BME280;19910;42.652;23.332;2022-09-09T03:57:15;94846.09;;;15.52;88.37
23176;BME280;19910;42.652;23.332;2022-09-09T03:59:42;94841.25;;;15.45;88.48
23176;BME280;19910;42.652;23.332;2022-09-09T04:02:09;94836.69;;;15.49;88.47
23176;BME280;19910;42.652;23.332;2022-09-09T04:04:36;94842.22;;;15.37;88.72
23176;BME280;19910;42.652;23.332;2022-09-09T04:07:03;94847.34;;;15.39;88.90
23176;BME280;19910;42.652;23.332;2022-09-09T04:09:31;94852.25;;;15.49;88.16
23176;BME280;19910;42.652;23.332;2022-09-09T04:11:58;94847.28;;;15.67;87.92
23176;BME280;19910;42.652;23.332;2022-09-09T04:14:27;94850.84;;;15.86;86.98
23176;BME280;19910;42.652;23.332;2022-09-09T04:16:54;94841.28;;;16.31;86.21
23176;BME280;19910;42.652;23.332;2022-09-09T04:19:23;94828.88;;;16.72;84.29
23176;BME280;19910;42.652;23.332;2022-09-09T04:21:50;94823.47;;;17.18;82.37
23176;BME280;19910;42.652;23.332;2022-09-09T04:24:17;94821.44;;;17.60;79.76
23176;BME280;19910;42.652;23.332;2022-09-09T04:26:44;94828.75;;;18.02;78.10
23176;BME280;19910;42.652;23.332;2022-09-09T04:29:12;94825.16;;;18.54;75.63
23176;BME280;19910;42.652;23.332;2022-09-09T04:31:40;94825.41;;;18.72;76.00
23176;BME280;19910;42.652;23.332;2022-09-09T04:34:07;94825.78;;;19.48;73.33
23176;BME280;19910;42.652;23.332;2022-09-09T04:36:34;94814.91;;;20.13;70.09
23176;BME280;19910;42.652;23.332;2022-09-09T04:39:02;94831.84;;;20.19;69.26
23176;BME280;19910;42.652;23.332;2022-09-09T04:41:29;94832.47;;;20.56;67.76
23176;BME280;19910;42.652;23.332;2022-09-09T04:43:56;94829.50;;;21.08;65.19
23176;BME280;19910;42.652;23.332;2022-09-09T04:46:24;94845.06;;;20.65;65.56
23176;BME280;19910;42.652;23.332;2022-09-09T04:48:52;94847.00;;;19.95;67.54
23176;BME280;19910;42.652;23.332;2022-09-09T04:51:19;94829.22;;;19.38;69.68
23176;BME280;19910;42.652;23.332;2022-09-09T04:53:46;94823.47;;;19.09;71.24
23176;BME280;19910;42.652;23.332;2022-09-09T04:56:15;94819.03;;;19.38;71.19
23176;BME280;19910;42.652;23.332;2022-09-09T04:58:43;94814.19;;;20.27;68.99
23176;BME280;19910;42.652;23.332;2022-09-09T05:01:12;94802.06;;;21.72;65.16
23176;BME280;19910;42.652;23.332;2022-09-09T05:03:39;94796.41;;;22.53;62.36
23176;BME280;19910;42.652;23.332;2022-09-09T05:06:08;94795.34;;;23.13;59.97
23176;BME280;19910;42.652;23.332;2022-09-09T05:08:36;94779.63;;;24.06;56.83
23176;BME280;19910;42.652;23.332;2022-09-09T05:11:04;94767.91;;;24.70;54.47
23176;BME280;19910;42.652;23.332;2022-09-09T05:13:38;94779.31;;;24.42;54.63
23176;BME280;19910;42.652;23.332;2022-09-09T05:16:05;94784.94;;;24.69;53.94
23176;BME280;19910;42.652;23.332;2022-09-09T05:18:32;94799.06;;;24.78;54.03
23176;BME280;19910;42.652;23.332;2022-09-09T05:20:59;94799.03;;;23.62;56.37
23176;BME280;19910;42.652;23.332;2022-09-09T05:23:28;94786.31;;;24.13;55.32
23176;BME280;19910;42.652;23.332;2022-09-09T05:25:56;94779.72;;;23.99;56.56
23176;BME280;19910;42.652;23.332;2022-09-09T05:28:23;94772.81;;;25.47;52.34
23176;BME280;19910;42.652;23.332;2022-09-09T05:30:58;94779.31;;;25.87;51.72
23176;BME280;19910;42.652;23.332;2022-09-09T05:33:26;94780.66;;;25.79;50.57
23176;BME280;19910;42.652;23.332;2022-09-09T05:36:00;94777.63;;;26.79;48.64
23176;BME280;19910;42.652;23.332;2022-09-09T05:38:30;94779.97;;;26.18;50.01
23176;BME280;19910;42.652;23.332;2022-09-09T05:40:57;94776.72;;;26.23;49.13
23176;BME280;19910;42.652;23.332;2022-09-09T05:43:25;94777.41;;;27.10;47.88
23176;BME280;19910;42.652;23.332;2022-09-09T05:46:03;94783.13;;;25.73;49.79
23176;BME280;19910;42.652;23.332;2022-09-09T05:48:31;94787.75;;;27.45;47.29
23176;BME280;19910;42.652;23.332;2022-09-09T05:50:59;94802.13;;;26.45;48.79
23176;BME280;19910;42.652;23.332;2022-09-09T05:53:26;94788.16;;;27.64;45.69
23176;BME280;19910;42.652;23.332;2022-09-09T05:56:03;94773.25;;;28.80;43.01
23176;BME280;19910;42.652;23.332;2022-09-09T05:58:30;94785.56;;;28.21;42.97
23176;BME280;19910;42.652;23.332;2022-09-09T06:01:02;94791.94;;;28.51;42.93
23176;BME280;19910;42.652;23.332;2022-09-09T06:03:29;94788.44;;;29.59;40.69
23176;BME280;19910;42.652;23.332;2022-09-09T06:05:59;94802.75;;;28.16;42.61
23176;BME280;19910;42.652;23.332;2022-09-09T06:08:27;94807.41;;;27.54;43.84
23176;BME280;19910;42.652;23.332;2022-09-09T06:10:53;94808.63;;;27.73;43.29
23176;BME280;19910;42.652;23.332;2022-09-09T06:13:29;94810.44;;;29.03;41.07
23176;BME280;19910;42.652;23.332;2022-09-09T06:15:56;94802.53;;;29.14;40.72
23176;BME280;19910;42.652;23.332;2022-09-09T06:18:23;94792.44;;;30.09;38.96
23176;BME280;19910;42.652;23.332;2022-09-09T06:20:58;94790.41;;;30.69;37.73
23176;BME280;19910;42.652;23.332;2022-09-09T06:23:26;94801.88;;;29.64;38.72
23176;BME280;19910;42.652;23.332;2022-09-09T06:26:01;94797.16;;;29.86;39.43
23176;BME280;19910;42.652;23.332;2022-09-09T06:28:32;94787.88;;;30.49;38.19
23176;BME280;19910;42.652;23.332;2022-09-09T06:30:59;94800.28;;;29.63;38.63
23176;BME280;19910;42.652;23.332;2022-09-09T06:33:26;94803.69;;;29.29;39.71
23176;BME280;19910;42.652;23.332;2022-09-09T06:35:54;94797.38;;;29.92;38.40
23176;BME280;19910;42.652;23.332;2022-09-09T06:38:22;94791.63;;;30.33;38.03
23176;BME280;19910;42.652;23.332;2022-09-09T06:40:52;94782.06;;;30.78;37.06
23176;BME280;19910;42.652;23.332;2022-09-09T06:43:21;94786.22;;;29.79;38.94
23176;BME280;19910;42.652;23.332;2022-09-09T06:45:55;94784.19;;;29.92;38.53
23176;BME280;19910;42.652;23.332;2022-09-09T06:48:22;94782.09;;;29.58;38.62
23176;BME280;19910;42.652;23.332;2022-09-09T06:50:49;94797.25;;;29.45;38.42
23176;BME280;19910;42.652;23.332;2022-09-09T06:53:16;94806.78;;;29.06;39.42
23176;BME280;19910;42.652;23.332;2022-09-09T06:55:45;94798.34;;;30.23;38.63
23176;BME280;19910;42.652;23.332;2022-09-09T06:58:11;94800.63;;;31.06;36.72
23176;BME280;19910;42.652;23.332;2022-09-09T07:00:38;94805.69;;;30.43;38.03
23176;BME280;19910;42.652;23.332;2022-09-09T07:03:07;94801.28;;;30.07;37.98
23176;BME280;19910;42.652;23.332;2022-09-09T07:05:33;94805.53;;;29.74;39.38
23176;BME280;19910;42.652;23.332;2022-09-09T07:08:01;94813.22;;;29.03;39.11
23176;BME280;19910;42.652;23.332;2022-09-09T07:10:28;94817.56;;;28.46;41.02
23176;BME280;19910;42.652;23.332;2022-09-09T07:12:55;94815.66;;;28.10;41.98
23176;BME280;19910;42.652;23.332;2022-09-09T07:15:21;94810.53;;;28.70;40.58
23176;BME280;19910;42.652;23.332;2022-09-09T07:17:49;94806.38;;;28.62;40.03
23176;BME280;19910;42.652;23.332;2022-09-09T07:20:17;94802.53;;;29.14;40.27
23176;BME280;19910;42.652;23.332;2022-09-09T07:22:45;94798.34;;;29.22;40.38
23176;BME280;19910;42.652;23.332;2022-09-09T07:25:12;94798.00;;;29.32;40.25
23176;BME280;19910;42.652;23.332;2022-09-09T07:27:39;94800.41;;;29.05;41.41
23176;BME280;19910;42.652;23.332;2022-09-09T07:30:07;94800.34;;;28.18;41.64
23176;BME280;19910;42.652;23.332;2022-09-09T07:32:34;94801.81;;;27.58;42.59
23176;BME280;19910;42.652;23.332;2022-09-09T07:35:01;94790.75;;;27.18;43.62
23176;BME280;19910;42.652;23.332;2022-09-09T07:37:29;94786.19;;;27.08;44.51
23176;BME280;19910;42.652;23.332;2022-09-09T07:39:56;94787.88;;;26.82;44.22
23176;BME280;19910;42.652;23.332;2022-09-09T07:42:24;94799.25;;;26.05;45.78
23176;BME280;19910;42.652;23.332;2022-09-09T07:44:51;94804.66;;;26.99;44.44
23176;BME280;19910;42.652;23.332;2022-09-09T07:47:20;94812.66;;;26.34;45.22
23176;BME280;19910;42.652;23.332;2022-09-09T07:49:47;94812.63;;;26.57;44.82
23176;BME280;19910;42.652;23.332;2022-09-09T07:52:15;94811.50;;;26.74;44.95
23176;BME280;19910;42.652;23.332;2022-09-09T07:54:43;94804.88;;;27.08;44.71
23176;BME280;19910;42.652;23.332;2022-09-09T07:57:11;94802.72;;;27.87;42.79
23176;BME280;19910;42.652;23.332;2022-09-09T07:59:37;94789.38;;;27.79;42.68
23176;BME280;19910;42.652;23.332;2022-09-09T08:02:05;94807.75;;;27.04;44.44
23176;BME280;19910;42.652;23.332;2022-09-09T08:04:32;94799.63;;;26.31;45.67
23176;BME280;19910;42.652;23.332;2022-09-09T08:07:00;94799.66;;;26.70;45.62
23176;BME280;19910;42.652;23.332;2022-09-09T08:09:28;94805.38;;;26.63;44.70
23176;BME280;19910;42.652;23.332;2022-09-09T08:11:57;94806.59;;;26.39;45.05
23176;BME280;19910;42.652;23.332;2022-09-09T08:14:24;94799.44;;;27.20;43.76
23176;BME280;19910;42.652;23.332;2022-09-09T08:16:51;94796.69;;;27.56;42.96
23176;BME280;19910;42.652;23.332;2022-09-09T08:19:18;94797.94;;;27.52;42.80
23176;BME280;19910;42.652;23.332;2022-09-09T08:21:45;94791.56;;;27.35;42.81
23176;BME280;19910;42.652;23.332;2022-09-09T08:24:14;94794.94;;;27.79;42.59
23176;BME280;19910;42.652;23.332;2022-09-09T08:26:42;94792.50;;;28.13;42.49
23176;BME280;19910;42.652;23.332;2022-09-09T08:29:11;94793.19;;;28.34;43.12
23176;BME280;19910;42.652;23.332;2022-09-09T08:31:41;94792.84;;;27.67;42.42
23176;BME280;19910;42.652;23.332;2022-09-09T08:34:09;94786.41;;;27.17;42.79
23176;BME280;19910;42.652;23.332;2022-09-09T08:36:37;94785.31;;;27.31;42.64
23176;BME280;19910;42.652;23.332;2022-09-09T08:39:06;94791.53;;;27.19;43.46
23176;BME280;19910;42.652;23.332;2022-09-09T08:41:54;94801.22;;;26.71;43.37
23176;BME280;19910;42.652;23.332;2022-09-09T08:44:35;94798.03;;;26.30;44.32
23176;BME280;19910;42.652;23.332;2022-09-09T08:47:15;94787.41;;;27.07;44.12
23176;BME280;19910;42.652;23.332;2022-09-09T08:50:02;94781.03;;;27.07;44.16
23176;BME280;19910;42.652;23.332;2022-09-09T08:52:38;94783.38;;;27.28;43.78
23176;BME280;19910;42.652;23.332;2022-09-09T08:55:18;94795.75;;;27.43;45.11
23176;BME280;19910;42.652;23.332;2022-09-09T08:57:48;94782.31;;;27.22;43.47
23176;BME280;19910;42.652;23.332;2022-09-09T09:00:18;94782.16;;;27.29;43.00
23176;BME280;19910;42.652;23.332;2022-09-09T09:02:51;94787.19;;;27.34;42.31
23176;BME280;19910;42.652;23.332;2022-09-09T09:05:26;94786.69;;;26.83;42.96
23176;BME280;19910;42.652;23.332;2022-09-09T09:08:00;94785.09;;;27.22;43.18
23176;BME280;19910;42.652;23.332;2022-09-09T09:10:39;94785.03;;;27.94;41.52
23176;BME280;19910;42.652;23.332;2022-09-09T09:13:14;94787.97;;;28.03;42.00
23176;BME280;19910;42.652;23.332;2022-09-09T09:15:44;94787.50;;;28.53;40.65
23176;BME280;19910;42.652;23.332;2022-09-09T09:18:13;94791.44;;;28.40;40.69
23176;BME280;19910;42.652;23.332;2022-09-09T09:20:49;94789.16;;;27.53;42.18
23176;BME280;19910;42.652;23.332;2022-09-09T09:23:21;94782.41;;;28.03;41.42
23176;BME280;19910;42.652;23.332;2022-09-09T09:25:50;94785.19;;;28.36;41.48
23176;BME280;19910;42.652;23.332;2022-09-09T09:28:21;94773.09;;;27.93;40.83
23176;BME280;19910;42.652;23.332;2022-09-09T09:30:54;94772.16;;;28.74;39.75
23176;BME280;19910;42.652;23.332;2022-09-09T09:33:27;94779.41;;;29.00;39.66
23176;BME280;19910;42.652;23.332;2022-09-09T09:35:54;94777.31;;;29.05;40.23
23176;BME280;19910;42.652;23.332;2022-09-09T09:38:23;94781.53;;;28.96;40.25
23176;BME280;19910;42.652;23.332;2022-09-09T09:40:51;94771.56;;;28.54;40.13
23176;BME280;19910;42.652;23.332;2022-09-09T09:43:22;94772.59;;;29.02;39.85
23176;BME280;19910;42.652;23.332;2022-09-09T09:45:51;94760.19;;;28.61;39.24
23176;BME280;19910;42.652;23.332;2022-09-09T09:48:18;94753.84;;;28.89;39.45
23176;BME280;19910;42.652;23.332;2022-09-09T09:50:50;94759.66;;;28.66;40.45
23176;BME280;19910;42.652;23.332;2022-09-09T09:53:22;94760.31;;;28.28;41.70
23176;BME280;19910;42.652;23.332;2022-09-09T09:55:54;94750.75;;;27.81;41.65
23176;BME280;19910;42.652;23.332;2022-09-09T09:58:22;94752.59;;;28.16;41.71
23176;BME280;19910;42.652;23.332;2022-09-09T10:00:52;94748.56;;;28.50;41.28
23176;BME280;19910;42.652;23.332;2022-09-09T10:03:22;94739.16;;;29.27;39.08
23176;BME280;19910;42.652;23.332;2022-09-09T10:05:50;94743.63;;;29.37;40.57
23176;BME280;19910;42.652;23.332;2022-09-09T10:08:17;94747.41;;;29.94;38.44
23176;BME280;19910;42.652;23.332;2022-09-09T10:10:58;94743.47;;;30.17;37.53
23176;BME280;19910;42.652;23.332;2022-09-09T10:13:32;94751.91;;;29.53;38.75
23176;BME280;19910;42.652;23.332;2022-09-09T10:16:17;94745.31;;;29.73;37.96
23176;BME280;19910;42.652;23.332;2022-09-09T10:18:57;94760.50;;;29.33;38.68
23176;BME280;19910;42.652;23.332;2022-09-09T10:21:38;94769.88;;;28.27;40.71
23176;BME280;19910;42.652;23.332;2022-09-09T10:24:35;94771.28;;;27.71;42.68
23176;BME280;19910;42.652;23.332;2022-09-09T10:27:13;94772.91;;;27.16;43.83
23176;BME280;19910;42.652;23.332;2022-09-09T10:30:06;94773.34;;;26.55;45.30
23176;BME280;19910;42.652;23.332;2022-09-09T10:32:40;94769.50;;;26.49;44.61
23176;BME280;19910;42.652;23.332;2022-09-09T10:35:14;94770.34;;;26.66;45.11
23176;BME280;19910;42.652;23.332;2022-09-09T10:38:13;94762.31;;;26.71;44.12
23176;BME280;19910;42.652;23.332;2022-09-09T10:40:49;94771.28;;;26.59;45.29
23176;BME280;19910;42.652;23.332;2022-09-09T10:43:36;94768.56;;;26.36;45.83
23176;BME280;19910;42.652;23.332;2022-09-09T10:46:09;94772.66;;;26.51;45.52
23176;BME280;19910;42.652;23.332;2022-09-09T10:48:50;94774.97;;;26.33;45.92
23176;BME280;19910;42.652;23.332;2022-09-09T10:51:28;94774.19;;;26.32;46.43
23176;BME280;19910;42.652;23.332;2022-09-09T10:54:20;94771.69;;;26.14;47.15
23176;BME280;19910;42.652;23.332;2022-09-09T10:56:55;94772.97;;;26.53;45.83
23176;BME280;19910;42.652;23.332;2022-09-09T10:59:24;94762.72;;;26.89;45.08
23176;BME280;19910;42.652;23.332;2022-09-09T11:01:57;94770.44;;;27.02;44.66
23176;BME280;19910;42.652;23.332;2022-09-09T11:04:29;94762.59;;;26.14;47.08
23176;BME280;19910;42.652;23.332;2022-09-09T11:07:02;94777.50;;;26.24;47.60
23176;BME280;19910;42.652;23.332;2022-09-09T11:09:40;94776.31;;;26.01;47.53
23176;BME280;19910;42.652;23.332;2022-09-09T11:12:12;94772.56;;;26.35;47.26
23176;BME280;19910;42.652;23.332;2022-09-09T11:14:43;94774.72;;;26.47;47.00
23176;BME280;19910;42.652;23.332;2022-09-09T11:17:15;94769.50;;;26.69;47.18
23176;BME280;19910;42.652;23.332;2022-09-09T11:19:45;94765.84;;;26.52;46.24
23176;BME280;19910;42.652;23.332;2022-09-09T11:22:22;94761.84;;;26.92;46.37
23176;BME280;19910;42.652;23.332;2022-09-09T11:24:55;94750.53;;;27.39;45.12
23176;BME280;19910;42.652;23.332;2022-09-09T11:27:26;94744.97;;;27.55;44.64
23176;BME280;19910;42.652;23.332;2022-09-09T11:30:14;94746.38;;;27.80;43.63
23176;BME280;19910;42.652;23.332;2022-09-09T11:33:21;94738.00;;;27.31;45.01
23176;BME280;19910;42.652;23.332;2022-09-09T11:36:09;94728.53;;;27.61;44.78
23176;BME280;19910;42.652;23.332;2022-09-09T11:38:44;94719.22;;;27.19;45.35
23176;BME280;19910;42.652;23.332;2022-09-09T11:41:13;94718.75;;;27.04;46.17
23176;BME280;19910;42.652;23.332;2022-09-09T11:43:43;94726.31;;;27.56;45.70
23176;BME280;19910;42.652;23.332;2022-09-09T11:46:12;94715.75;;;27.64;45.28
23176;BME280;19910;42.652;23.332;2022-09-09T11:48:41;94695.25;;;27.74;45.27
23176;BME280;19910;42.652;23.332;2022-09-09T11:51:25;94685.81;;;27.03;45.90
23176;BME280;19910;42.652;23.332;2022-09-09T11:53:53;94676.38;;;26.41;48.58
23176;BME280;19910;42.652;23.332;2022-09-09T11:56:30;94668.28;;;26.66;48.17
23176;BME280;19910;42.652;23.332;2022-09-09T11:59:00;94680.75;;;26.98;46.85
23176;BME280;19910;42.652;23.332;2022-09-09T12:01:36;94688.00;;;26.92;47.32
23176;BME280;19910;42.652;23.332;2022-09-09T12:04:29;94685.50;;;26.61;48.52
23176;BME280;19910;42.652;23.332;2022-09-09T12:07:00;94684.25;;;27.50;46.40
23176;BME280;19910;42.652;23.332;2022-09-09T12:09:33;94678.25;;;28.29;44.51
23176;BME280;19910;42.652;23.332;2022-09-09T12:12:21;94674.06;;;27.92;44.75
23176;BME280;19910;42.652;23.332;2022-09-09T12:14:56;94676.25;;;27.52;46.56
23176;BME280;19910;42.652;23.332;2022-09-09T12:17:26;94671.56;;;27.49;46.58
23176;BME280;19910;42.652;23.332;2022-09-09T12:20:13;94669.47;;;27.37;47.32
23176;BME280;19910;42.652;23.332;2022-09-09T12:22:51;94668.72;;;27.69;47.85
23176;BME280;19910;42.652;23.332;2022-09-09T12:25:28;94667.50;;;28.15;45.27
23176;BME280;19910;42.652;23.332;2022-09-09T12:28:04;94668.91;;;27.91;44.92
23176;BME280;19910;42.652;23.332;2022-09-09T12:30:39;94666.34;;;27.68;46.01
23176;BME280;19910;42.652;23.332;2022-09-09T12:33:11;94657.66;;;27.33;46.10
23176;BME280;19910;42.652;23.332;2022-09-09T12:35:40;94649.22;;;27.37;46.88
23176;BME280;19910;42.652;23.332;2022-09-09T12:38:13;94648.59;;;27.13;47.83
23176;BME280;19910;42.652;23.332;2022-09-09T12:40:41;94651.66;;;27.18;47.48
23176;BME280;19910;42.652;23.332;2022-09-09T12:43:17;94634.34;;;27.11;47.75
23176;BME280;19910;42.652;23.332;2022-09-09T12:45:44;94643.91;;;26.74;48.08
23176;BME280;19910;42.652;23.332;2022-09-09T12:48:11;94648.63;;;27.29;47.88
23176;BME280;19910;42.652;23.332;2022-09-09T12:50:45;94649.22;;;27.53;46.69
23176;BME280;19910;42.652;23.332;2022-09-09T12:53:21;94643.38;;;27.64;47.10
23176;BME280;19910;42.652;23.332;2022-09-09T12:55:50;94638.16;;;27.82;46.29
23176;BME280;19910;42.652;23.332;2022-09-09T12:58:19;94637.44;;;27.78;45.74
23176;BME280;19910;42.652;23.332;2022-09-09T13:00:50;94631.50;;;27.92;46.22
23176;BME280;19910;42.652;23.332;2022-09-09T13:03:20;94612.59;;;27.71;46.39
23176;BME280;19910;42.652;23.332;2022-09-09T13:05:47;94617.66;;;27.43;47.42
23176;BME280;19910;42.652;23.332;2022-09-09T13:08:17;94629.13;;;27.29;46.95
23176;BME280;19910;42.652;23.332;2022-09-09T13:10:48;94627.22;;;27.10;48.06
23176;BME280;19910;42.652;23.332;2022-09-09T13:13:17;94627.06;;;27.33;47.07
23176;BME280;19910;42.652;23.332;2022-09-09T13:15:51;94616.25;;;27.35;47.29